PWSweather.com
Personal Weather Stations
Station Observations
CARNOUSTIE
Pambride, CarnoustieGB DD7 6DY

PambrideCarnoustieGB DD7 6DY

Lat: 56.50889, Lon: -2.7051

Elevation: 105

Station Type: Oregon Scientific WMR200

Latest ConditionsUpdated 5:20:00 AM GMT Thursday, Jun 27, 2019
Currently Today's Max Today's Min Today's Average
Temperature 53.4°F11.9°C 53.4°F11.9°C 47.5°F8.6°C 49.4°F9.7°C
Dew Point 40.7°F4.8°C 40.7°F4.8°C 32.6°F0.3°C 35.0°F1.7°C
Winds 2.3 mph WSW3.7 kmh WSW 4.6 mph -7.4 kmh - - 2.8 mph 4.5 kmh
Wind Gusts 2.3 mph3.7 kmh 5.8 mph9.3 kmh - -
Humidity 62% 62% 53% 57%
Pressure 30.42 in1030.1 mb 30.45 in1031.2 mb 30.42 in1030.1 mb -
Hour Temp Dew Point Humidity Winds Wind Gusts Pressure Precip Precip Rate Daily Precip Total
05:20 AM 53.4°F11.9°C 40.7°F4.8°C 62% 2.3 mph WSW3.7 kmh WSW 2.3 mph3.7 kmh 30.42 in1030.1 mb - 0.00 in0.0 mm 0.00 in0.0 mm
05:15 AM 52.8°F11.6°C 39.8°F4.3°C 61% 3.5 mph W5.6 kmh W 3.5 mph5.6 kmh 30.42 in1030.1 mb - 0.00 in0.0 mm 0.00 in0.0 mm
05:10 AM 52.2°F11.2°C 39.1°F3.9°C 61% Calm Calm 2.3 mph3.7 kmh 30.42 in1030.1 mb - 0.00 in0.0 mm 0.00 in0.0 mm
05:00 AM 51.3°F10.7°C 38.3°F3.5°C 61% Calm Calm -- 30.42 in1030.1 mb - 0.00 in0.0 mm 0.00 in0.0 mm
04:55 AM 50.9°F10.5°C 37.9°F3.3°C 61% Calm Calm -- 30.42 in1030.1 mb - 0.00 in0.0 mm 0.00 in0.0 mm
04:50 AM 50.5°F10.3°C 37.6°F3.1°C 61% Calm Calm -- 30.42 in1030.1 mb - 0.00 in0.0 mm 0.00 in0.0 mm
04:45 AM 50.2°F10.1°C 37.2°F2.9°C 61% 3.5 mph W5.6 kmh W 3.5 mph5.6 kmh 30.42 in1030.1 mb - 0.00 in0.0 mm 0.00 in0.0 mm
04:40 AM 50.0°F10.0°C 36.7°F2.6°C 60% 3.5 mph W5.6 kmh W 3.5 mph5.6 kmh 30.42 in1030.1 mb - 0.00 in0.0 mm 0.00 in0.0 mm
04:35 AM 49.6°F9.8°C 36.7°F2.6°C 61% 4.6 mph W7.4 kmh W 4.6 mph7.4 kmh 30.42 in1030.1 mb - 0.00 in0.0 mm 0.00 in0.0 mm
04:30 AM 49.6°F9.8°C 36.3°F2.4°C 60% 3.5 mph W5.6 kmh W 4.6 mph7.4 kmh 30.42 in1030.1 mb - 0.00 in0.0 mm 0.00 in0.0 mm
04:25 AM 49.5°F9.7°C 36.1°F2.3°C 60% 4.6 mph WNW7.4 kmh WNW 4.6 mph7.4 kmh 30.42 in1030.1 mb - 0.00 in0.0 mm 0.00 in0.0 mm
04:20 AM 49.3°F9.6°C 36.0°F2.2°C 60% 4.6 mph W7.4 kmh W 5.8 mph9.3 kmh 30.42 in1030.1 mb - 0.00 in0.0 mm 0.00 in0.0 mm
04:15 AM 49.3°F9.6°C 36.0°F2.2°C 60% 4.6 mph W7.4 kmh W 4.6 mph7.4 kmh 30.42 in1030.1 mb - 0.00 in0.0 mm 0.00 in0.0 mm
04:10 AM 49.3°F9.6°C 36.0°F2.2°C 60% 4.6 mph W7.4 kmh W 4.6 mph7.4 kmh 30.42 in1030.1 mb - 0.00 in0.0 mm 0.00 in0.0 mm
04:00 AM 49.1°F9.5°C 35.4°F1.9°C 59% 4.6 mph W7.4 kmh W 5.8 mph9.3 kmh 30.42 in1030.1 mb - 0.00 in0.0 mm 0.00 in0.0 mm
03:55 AM 49.2°F9.6°C 35.5°F1.9°C 59% 3.5 mph WSW5.6 kmh WSW 3.5 mph5.6 kmh 30.42 in1030.1 mb - 0.00 in0.0 mm 0.00 in0.0 mm
03:50 AM 49.3°F9.6°C 35.5°F1.9°C 59% 3.5 mph WSW5.6 kmh WSW 4.6 mph7.4 kmh 30.42 in1030.1 mb - 0.00 in0.0 mm 0.00 in0.0 mm
03:45 AM 49.5°F9.7°C 35.7°F2.1°C 59% 3.5 mph W5.6 kmh W 4.6 mph7.4 kmh 30.42 in1030.1 mb - 0.00 in0.0 mm 0.00 in0.0 mm
03:40 AM 49.6°F9.8°C 35.9°F2.2°C 59% 4.6 mph W7.4 kmh W 5.8 mph9.3 kmh 30.42 in1030.1 mb - 0.00 in0.0 mm 0.00 in0.0 mm
03:35 AM 49.6°F9.8°C 35.9°F2.2°C 59% 4.6 mph W7.4 kmh W 5.8 mph9.3 kmh 30.42 in1030.1 mb - 0.00 in0.0 mm 0.00 in0.0 mm
03:30 AM 49.5°F9.7°C 35.3°F1.8°C 58% 4.6 mph WSW7.4 kmh WSW 5.8 mph9.3 kmh 30.42 in1030.1 mb - 0.00 in0.0 mm 0.00 in0.0 mm
03:25 AM 49.3°F9.6°C 35.1°F1.7°C 58% 3.5 mph W5.6 kmh W 3.5 mph5.6 kmh 30.42 in1030.1 mb - 0.00 in0.0 mm 0.00 in0.0 mm
03:20 AM 49.5°F9.7°C 35.3°F1.8°C 58% 2.3 mph SSW3.7 kmh SSW 2.3 mph3.7 kmh 30.42 in1030.1 mb - 0.00 in0.0 mm 0.00 in0.0 mm
03:15 AM 49.5°F9.7°C 35.3°F1.8°C 58% 3.5 mph WSW5.6 kmh WSW 3.5 mph5.6 kmh 30.42 in1030.1 mb - 0.00 in0.0 mm 0.00 in0.0 mm
03:10 AM 49.6°F9.8°C 35.5°F1.9°C 58% 3.5 mph S5.6 kmh S 3.5 mph5.6 kmh 30.42 in1030.1 mb - 0.00 in0.0 mm 0.00 in0.0 mm
03:00 AM 49.8°F9.9°C 35.6°F2.0°C 58% 2.3 mph W3.7 kmh W 2.3 mph3.7 kmh 30.42 in1030.1 mb - 0.00 in0.0 mm 0.00 in0.0 mm
02:55 AM 49.8°F9.9°C 35.6°F2.0°C 58% 3.5 mph S5.6 kmh S 4.6 mph7.4 kmh 30.42 in1030.1 mb - 0.00 in0.0 mm 0.00 in0.0 mm
02:50 AM 49.6°F9.8°C 35.5°F1.9°C 58% 2.3 mph WNW3.7 kmh WNW 2.3 mph3.7 kmh 30.42 in1030.1 mb - 0.00 in0.0 mm 0.00 in0.0 mm
02:45 AM 49.5°F9.7°C 35.3°F1.8°C 58% 3.5 mph WNW5.6 kmh WNW 3.5 mph5.6 kmh 30.42 in1030.1 mb - 0.00 in0.0 mm 0.00 in0.0 mm
02:40 AM 49.5°F9.7°C 35.3°F1.8°C 58% 3.5 mph WNW5.6 kmh WNW 3.5 mph5.6 kmh 30.42 in1030.1 mb - 0.00 in0.0 mm 0.00 in0.0 mm
02:35 AM 49.5°F9.7°C 35.3°F1.8°C 58% 3.5 mph NW5.6 kmh NW 4.6 mph7.4 kmh 30.42 in1030.1 mb - 0.00 in0.0 mm 0.00 in0.0 mm
02:30 AM 49.3°F9.6°C 34.7°F1.5°C 57% 3.5 mph NW5.6 kmh NW 3.5 mph5.6 kmh 30.42 in1030.1 mb - 0.00 in0.0 mm 0.00 in0.0 mm
02:25 AM 49.0°F9.4°C 34.4°F1.3°C 57% 3.5 mph NW5.6 kmh NW 3.5 mph5.6 kmh 30.42 in1030.1 mb - 0.00 in0.0 mm 0.00 in0.0 mm
02:20 AM 48.7°F9.3°C 34.2°F1.2°C 57% 3.5 mph WNW5.6 kmh WNW 4.6 mph7.4 kmh 30.42 in1030.1 mb - 0.00 in0.0 mm 0.00 in0.0 mm
02:15 AM 48.6°F9.2°C 34.0°F1.1°C 57% 3.5 mph WNW5.6 kmh WNW 3.5 mph5.6 kmh 30.42 in1030.1 mb - 0.00 in0.0 mm 0.00 in0.0 mm
02:10 AM 48.2°F9.0°C 33.2°F0.7°C 56% 3.5 mph WNW5.6 kmh WNW 4.6 mph7.4 kmh 30.45 in1031.2 mb - 0.00 in0.0 mm 0.00 in0.0 mm
02:00 AM 47.8°F8.8°C 32.9°F0.5°C 56% 3.5 mph WNW5.6 kmh WNW 4.6 mph7.4 kmh 30.45 in1031.2 mb - 0.00 in0.0 mm 0.00 in0.0 mm
01:55 AM 47.8°F8.8°C 32.9°F0.5°C 56% 2.3 mph WNW3.7 kmh WNW 3.5 mph5.6 kmh 30.45 in1031.2 mb - 0.00 in0.0 mm 0.00 in0.0 mm
01:50 AM 47.8°F8.8°C 32.9°F0.5°C 56% 3.5 mph WNW5.6 kmh WNW 4.6 mph7.4 kmh 30.45 in1031.2 mb - 0.00 in0.0 mm 0.00 in0.0 mm
01:45 AM 47.5°F8.6°C 32.6°F0.3°C 56% 3.5 mph WNW5.6 kmh WNW 4.6 mph7.4 kmh 30.45 in1031.2 mb - 0.00 in0.0 mm 0.00 in0.0 mm
01:40 AM 47.7°F8.7°C 32.7°F0.4°C 56% 2.3 mph WNW3.7 kmh WNW 3.5 mph5.6 kmh 30.45 in1031.2 mb - 0.00 in0.0 mm 0.00 in0.0 mm
01:35 AM 47.8°F8.8°C 32.9°F0.5°C 56% 2.3 mph WNW3.7 kmh WNW 3.5 mph5.6 kmh 30.45 in1031.2 mb - 0.00 in0.0 mm 0.00 in0.0 mm
01:30 AM 48.0°F8.9°C 32.6°F0.3°C 55% 2.3 mph W3.7 kmh W 3.5 mph5.6 kmh 30.45 in1031.2 mb - 0.00 in0.0 mm 0.00 in0.0 mm
01:25 AM 48.2°F9.0°C 32.8°F0.4°C 55% Calm Calm 1.2 mph1.9 kmh 30.45 in1031.2 mb - 0.00 in0.0 mm 0.00 in0.0 mm
01:20 AM 48.4°F9.1°C 32.9°F0.5°C 55% 1.2 mph WNW1.9 kmh WNW 2.3 mph3.7 kmh 30.45 in1031.2 mb - 0.00 in0.0 mm 0.00 in0.0 mm
01:15 AM 48.6°F9.2°C 33.1°F0.6°C 55% 2.3 mph WNW3.7 kmh WNW 2.3 mph3.7 kmh 30.45 in1031.2 mb - 0.00 in0.0 mm 0.00 in0.0 mm
01:10 AM 48.7°F9.3°C 33.3°F0.7°C 55% Calm Calm -- 30.42 in1030.1 mb - 0.00 in0.0 mm 0.00 in0.0 mm
01:00 AM 48.9°F9.4°C 33.4°F0.8°C 55% 2.3 mph W3.7 kmh W 2.3 mph3.7 kmh 30.42 in1030.1 mb - 0.00 in0.0 mm 0.00 in0.0 mm
12:55 AM 48.9°F9.4°C 33.4°F0.8°C 55% 3.5 mph WNW5.6 kmh WNW 3.5 mph5.6 kmh 30.42 in1030.1 mb - 0.00 in0.0 mm 0.00 in0.0 mm
12:50 AM 48.9°F9.4°C 33.4°F0.8°C 55% 2.3 mph W3.7 kmh W 3.5 mph5.6 kmh 30.42 in1030.1 mb - 0.00 in0.0 mm 0.00 in0.0 mm
12:45 AM 49.1°F9.5°C 33.6°F0.9°C 55% 1.2 mph W1.9 kmh W 2.3 mph3.7 kmh 30.42 in1030.1 mb - 0.00 in0.0 mm 0.00 in0.0 mm
12:40 AM 49.1°F9.5°C 33.6°F0.9°C 55% 2.3 mph WSW3.7 kmh WSW 2.3 mph3.7 kmh 30.45 in1031.2 mb - 0.00 in0.0 mm 0.00 in0.0 mm
12:35 AM 49.5°F9.7°C 34.0°F1.1°C 55% Calm Calm -- 30.45 in1031.2 mb - 0.00 in0.0 mm 0.00 in0.0 mm
12:30 AM 49.5°F9.7°C 33.5°F0.8°C 54% 1.2 mph WSW1.9 kmh WSW 1.2 mph1.9 kmh 30.45 in1031.2 mb - 0.00 in0.0 mm 0.00 in0.0 mm
12:25 AM 49.5°F9.7°C 33.5°F0.8°C 54% 2.3 mph NNE3.7 kmh NNE 3.5 mph5.6 kmh 30.42 in1030.1 mb - 0.00 in0.0 mm 0.00 in0.0 mm
12:20 AM 49.5°F9.7°C 33.5°F0.8°C 54% 3.5 mph NNW5.6 kmh NNW 3.5 mph5.6 kmh 30.42 in1030.1 mb - 0.00 in0.0 mm 0.00 in0.0 mm
12:15 AM 49.6°F9.8°C 33.7°F0.9°C 54% 2.3 mph NW3.7 kmh NW 3.5 mph5.6 kmh 30.42 in1030.1 mb - 0.00 in0.0 mm 0.00 in0.0 mm
12:10 AM 49.7°F9.8°C 33.8°F1.0°C 54% 2.3 mph N3.7 kmh N 2.3 mph3.7 kmh 30.45 in1031.2 mb - 0.00 in0.0 mm 0.00 in0.0 mm
12:00 AM 50.0°F10.0°C 33.5°F0.8°C 53% 2.3 mph WNW3.7 kmh WNW 3.5 mph5.6 kmh 30.45 in1031.2 mb - 0.00 in0.0 mm 0.00 in0.0 mm